createdAt,value
2022-09-07T00:02:57.322Z,5.13
2022-09-07T00:06:08.329Z,3.03
2022-09-07T00:09:13.227Z,7.95
2022-09-07T00:12:18.272Z,3.15
2022-09-07T00:15:23.402Z,2.63
2022-09-07T00:18:28.074Z,2.35
2022-09-07T00:21:33.234Z,7.63
2022-09-07T00:24:38.304Z,1.98
2022-09-07T00:27:44.096Z,6.07
2022-09-07T00:30:48.520Z,2.47
2022-09-07T00:33:58.375Z,4.70
2022-09-07T00:37:05.799Z,4.07
2022-09-07T00:40:10.941Z,4.57
2022-09-07T00:43:34.855Z,1.15
2022-09-07T00:49:48.360Z,2.95
2022-09-07T00:53:14.449Z,1.08
2022-09-07T00:56:20.929Z,4.20
2022-09-07T00:59:32.414Z,2.03
2022-09-07T01:02:37.567Z,1.10
2022-09-07T01:05:48.604Z,4.68
2022-09-07T01:08:53.947Z,1.38
2022-09-07T01:12:01.006Z,5.97
2022-09-07T01:15:06.268Z,4.00
2022-09-07T01:18:52.989Z,0.93
2022-09-07T01:22:06.481Z,2.75
2022-09-07T01:25:19.662Z,1.33
2022-09-07T01:28:32.338Z,1.73
2022-09-07T01:31:47.840Z,3.47
2022-09-07T01:34:55.037Z,1.27
2022-09-07T01:38:11.206Z,1.15
2022-09-07T01:41:44.441Z,1.60
2022-09-07T01:44:58.152Z,3.60
2022-09-07T01:48:08.512Z,4.18
2022-09-07T01:51:14.211Z,7.60
2022-09-07T01:54:38.038Z,1.23
2022-09-07T01:58:02.025Z,2.70
2022-09-07T02:01:25.702Z,2.70
2022-09-07T02:04:45.442Z,1.45
2022-09-07T02:08:22.754Z,3.30
2022-09-07T02:11:39.691Z,4.28
2022-09-07T02:14:53.204Z,1.25
2022-09-07T02:18:24.449Z,2.17
2022-09-07T02:21:41.945Z,1.15
2022-09-07T02:24:52.775Z,2.13
2022-09-07T02:28:08.783Z,1.40
2022-09-07T02:31:16.127Z,2.97
2022-09-07T02:34:21.163Z,2.67
2022-09-07T02:37:37.666Z,4.85
2022-09-07T02:40:42.611Z,2.85
2022-09-07T02:43:55.203Z,3.55
2022-09-07T02:47:15.291Z,1.75
2022-09-07T02:50:54.295Z,2.70
2022-09-07T02:54:18.886Z,2.15
2022-09-07T02:58:07.741Z,3.13
2022-09-07T03:01:58.337Z,3.97
2022-09-07T03:05:26.559Z,3.38
2022-09-07T03:08:45.311Z,2.75
2022-09-07T03:11:50.567Z,1.27
2022-09-07T03:14:57.584Z,3.13
2022-09-07T03:18:05.517Z,4.32
2022-09-07T03:21:11.489Z,3.25
2022-09-07T03:24:16.459Z,7.25
2022-09-07T03:27:21.248Z,2.20
2022-09-07T03:30:28.856Z,4.07
2022-09-07T03:33:34.033Z,3.50
2022-09-07T03:36:40.486Z,7.38
2022-09-07T03:39:45.287Z,3.58
2022-09-07T03:42:50.910Z,4.10
2022-09-07T03:46:05.330Z,3.67
2022-09-07T03:49:22.135Z,4.70
2022-09-07T03:52:27.060Z,4.03
2022-09-07T03:55:32.036Z,3.88
2022-09-07T03:58:37.601Z,3.30
2022-09-07T04:01:48.011Z,4.03
2022-09-07T04:04:55.079Z,5.20
2022-09-07T04:07:59.822Z,4.35
2022-09-07T04:11:07.114Z,7.22
2022-09-07T04:14:12.252Z,7.13
2022-09-07T04:17:17.520Z,5.25
2022-09-07T04:20:22.358Z,7.38
2022-09-07T04:23:26.883Z,4.68
2022-09-07T04:29:38.346Z,8.65
2022-09-07T04:32:43.194Z,4.28
2022-09-07T04:35:48.386Z,9.75
2022-09-07T04:39:05.467Z,7.38
2022-09-07T04:42:12.338Z,7.97
2022-09-07T04:45:17.120Z,7.70
2022-09-07T04:48:22.170Z,3.97
2022-09-07T04:51:30.356Z,6.72
2022-09-07T04:54:35.376Z,7.57
2022-09-07T04:58:27.119Z,7.47
2022-09-07T05:01:35.037Z,5.88
2022-09-07T05:04:39.730Z,5.68
2022-09-07T05:07:47.875Z,5.57
2022-09-07T05:10:55.749Z,7.97
2022-09-07T05:14:03.031Z,7.25
2022-09-07T05:17:07.911Z,3.95
2022-09-07T05:20:16.289Z,5.30
2022-09-07T05:23:23.659Z,5.43
2022-09-07T05:26:36.108Z,11.98
2022-09-07T05:37:34.604Z,35.92
2022-09-07T05:41:11.897Z,14.07
2022-09-07T05:44:45.004Z,6.57
2022-09-07T05:48:35.473Z,10.75
2022-09-07T05:52:36.381Z,8.05
2022-09-07T05:56:08.393Z,8.43
2022-09-07T05:59:34.455Z,9.38
2022-09-07T06:03:05.672Z,8.82
2022-09-07T06:06:30.888Z,9.18
2022-09-07T06:13:25.715Z,6.00
2022-09-07T06:16:48.666Z,7.60
2022-09-07T06:30:45.052Z,6.60
2022-09-07T06:34:16.748Z,7.03
2022-09-07T06:37:42.825Z,4.53
2022-09-07T06:44:36.363Z,5.25
2022-09-07T06:47:50.455Z,6.40
2022-09-07T06:51:23.840Z,7.10
2022-09-07T06:59:06.661Z,5.57
2022-09-07T07:02:24.959Z,9.30
2022-09-07T07:05:31.990Z,5.72
2022-09-07T07:13:45.954Z,5.10
2022-09-07T07:17:22.409Z,5.47
2022-09-07T07:20:38.607Z,4.63
2022-09-07T07:23:50.842Z,4.25
2022-09-07T07:27:24.466Z,6.35
2022-09-07T07:31:39.115Z,8.02
2022-09-07T07:41:55.376Z,8.57
2022-09-07T07:48:59.225Z,5.68
2022-09-07T07:56:14.253Z,8.90
2022-09-07T07:59:28.767Z,7.63
2022-09-07T08:02:39.176Z,6.55
2022-09-07T08:06:00.116Z,7.25
2022-09-07T08:10:06.068Z,10.93
2022-09-07T08:14:10.732Z,8.32
2022-09-07T08:22:17.207Z,8.88
2022-09-07T08:25:29.349Z,10.88
2022-09-07T08:29:20.130Z,9.43
2022-09-07T08:32:55.515Z,10.75
2022-09-07T08:36:47.541Z,8.27
2022-09-07T08:39:59.282Z,8.27
2022-09-07T08:43:20.551Z,8.35
2022-09-07T08:47:25.337Z,10.40
2022-09-07T08:51:11.746Z,12.65
2022-09-07T08:54:46.500Z,8.25
2022-09-07T08:58:51.717Z,7.10
2022-09-07T09:02:35.190Z,9.82
2022-09-07T09:06:35.494Z,10.57
2022-09-07T09:10:20.857Z,9.43
2022-09-07T09:13:59.554Z,9.15
2022-09-07T09:17:29.051Z,10.35
2022-09-07T09:21:27.511Z,9.13
2022-09-07T09:25:17.198Z,11.65
2022-09-07T09:28:31.724Z,11.02
2022-09-07T09:32:13.528Z,11.80
2022-09-07T09:35:43.181Z,9.77
2022-09-07T09:39:42.507Z,10.23
2022-09-07T09:56:22.550Z,15.18
2022-09-07T10:00:20.267Z,12.82
2022-09-07T10:04:24.636Z,10.52
2022-09-07T10:08:09.330Z,11.40
2022-09-07T10:15:14.553Z,12.77
2022-09-07T10:18:34.541Z,17.50
2022-09-07T10:22:00.167Z,13.30
2022-09-07T10:29:48.003Z,9.18
2022-09-07T10:38:00.778Z,9.73
2022-09-07T10:41:10.211Z,10.55
2022-09-07T11:55:25.796Z,7.70
2022-09-07T11:58:32.856Z,12.48
2022-09-07T12:01:59.532Z,12.40
2022-09-07T12:05:19.547Z,26.05
2022-09-07T12:08:45.366Z,10.30
2022-09-07T12:12:34.088Z,10.43
2022-09-07T12:16:15.122Z,6.85
2022-09-07T12:19:24.676Z,13.20
2022-09-07T12:22:29.144Z,12.52
2022-09-07T12:25:35.057Z,11.07
2022-09-07T12:28:39.335Z,13.88
2022-09-07T12:31:59.704Z,12.20
2022-09-07T12:35:27.286Z,10.38
2022-09-07T12:38:31.646Z,11.43
2022-09-07T12:45:29.605Z,11.02
2022-09-07T12:49:22.887Z,8.75
2022-09-07T12:52:51.558Z,14.85
2022-09-07T12:56:26.836Z,10.63
2022-09-07T13:07:07.746Z,11.07
2022-09-07T13:10:33.894Z,10.57
2022-09-07T13:17:43.272Z,9.10
2022-09-07T13:21:07.509Z,11.85
2022-09-07T13:28:04.522Z,10.95
2022-09-07T13:32:02.835Z,10.05
2022-09-07T13:35:28.146Z,11.85
2022-09-07T13:38:36.505Z,10.23
2022-09-07T13:41:55.539Z,10.02
2022-09-07T13:45:04.978Z,10.32
2022-09-07T13:48:37.573Z,7.78
2022-09-07T13:52:18.144Z,9.98
2022-09-07T13:55:32.527Z,7.75
2022-09-07T13:58:41.102Z,9.65
2022-09-07T14:01:48.561Z,10.32
2022-09-07T14:04:56.216Z,8.48
2022-09-07T14:08:00.209Z,11.68
2022-09-07T14:11:22.955Z,8.95
2022-09-07T14:14:30.358Z,6.05
2022-09-07T14:17:35.048Z,10.10
2022-09-07T14:20:46.902Z,6.68
2022-09-07T14:23:51.498Z,9.73
2022-09-07T14:26:56.201Z,5.40
2022-09-07T14:30:20.206Z,7.25
2022-09-07T14:33:24.792Z,9.07
2022-09-07T14:36:45.614Z,7.72
2022-09-07T14:39:52.746Z,6.88
2022-09-07T14:42:57.279Z,8.00
2022-09-07T14:46:34.192Z,5.40
2022-09-07T14:49:39.229Z,12.98
2022-09-07T14:53:33.656Z,6.90
2022-09-07T14:56:11.262Z,5.53
2022-09-07T14:59:48.383Z,13.48
2022-09-07T15:02:52.712Z,7.35
2022-09-07T15:06:02.307Z,6.15
2022-09-07T15:09:26.553Z,9.80
2022-09-07T15:12:38.563Z,4.97
2022-09-07T15:15:46.784Z,6.53
2022-09-07T15:18:56.967Z,7.28
2022-09-07T15:22:04.867Z,4.97
2022-09-07T15:25:11.303Z,4.90
2022-09-07T15:32:03.903Z,5.00
2022-09-07T15:35:10.488Z,8.63
2022-09-07T15:41:39.476Z,11.05
2022-09-07T15:44:44.217Z,5.47
2022-09-07T15:47:52.185Z,5.32
2022-09-07T15:52:04.662Z,6.00
2022-09-07T15:54:29.531Z,6.28
2022-09-07T15:57:54.519Z,7.50
2022-09-07T16:04:26.055Z,4.60
2022-09-07T16:10:55.836Z,5.03
2022-09-07T16:23:50.350Z,6.60
2022-09-07T16:26:55.098Z,6.75
2022-09-07T16:29:59.787Z,6.60
2022-09-07T16:33:04.454Z,4.20
2022-09-07T16:36:16.154Z,4.43
2022-09-07T16:39:20.820Z,4.05
2022-09-07T16:42:24.940Z,7.50
2022-09-07T16:48:54.222Z,4.38
2022-09-07T16:51:59.069Z,4.18
2022-09-07T16:55:05.186Z,4.57
2022-09-07T17:01:37.673Z,4.07
2022-09-07T17:04:42.440Z,4.25
2022-09-07T17:07:47.721Z,6.75
2022-09-07T17:10:52.306Z,6.25
2022-09-07T17:13:58.928Z,4.95
2022-09-07T17:17:03.537Z,6.38
2022-09-07T17:20:08.684Z,5.72
2022-09-07T17:23:12.881Z,6.57
2022-09-07T17:26:19.672Z,7.57
2022-09-07T17:29:24.096Z,6.45
2022-09-07T17:32:29.971Z,5.90
2022-09-07T17:35:37.376Z,9.13
2022-09-07T17:42:06.751Z,5.18
2022-09-07T17:45:11.618Z,6.03
2022-09-07T17:48:16.228Z,6.63
2022-09-07T17:51:21.717Z,6.35
2022-09-07T17:54:26.226Z,8.90
2022-09-07T17:57:32.586Z,4.82
2022-09-07T18:00:37.137Z,6.35
2022-09-07T18:03:42.169Z,5.22
2022-09-07T18:06:46.851Z,7.43
2022-09-07T18:09:51.244Z,7.60
2022-09-07T18:12:55.476Z,6.82
2022-09-07T18:16:00.281Z,8.52
2022-09-07T18:19:09.308Z,8.48
2022-09-07T18:22:15.110Z,5.60
2022-09-07T18:25:19.704Z,6.05
2022-09-07T18:31:48.818Z,6.43
2022-09-07T18:34:52.967Z,8.52
2022-09-07T18:37:58.670Z,9.23
2022-09-07T18:41:15.766Z,6.85
2022-09-07T18:47:46.583Z,10.15
2022-09-07T18:50:55.409Z,8.40
2022-09-07T18:54:00.125Z,7.32
2022-09-07T19:00:11.060Z,7.00
2022-09-07T19:03:16.778Z,10.15
2022-09-07T19:06:23.818Z,10.68
2022-09-07T19:09:28.199Z,8.65
2022-09-07T19:12:32.895Z,7.68
2022-09-07T19:15:38.037Z,7.93
2022-09-07T19:18:47.315Z,8.07
2022-09-07T19:21:51.679Z,12.07
2022-09-07T19:28:00.084Z,13.07
2022-09-07T19:31:06.598Z,9.35
2022-09-07T19:34:11.538Z,7.90
2022-09-07T19:37:16.131Z,8.23
2022-09-07T19:40:20.831Z,8.13
2022-09-07T19:43:26.868Z,8.43
2022-09-07T19:46:31.319Z,9.88
2022-09-07T19:49:35.991Z,7.22
2022-09-07T19:52:40.491Z,8.75
2022-09-07T19:55:45.307Z,8.38
2022-09-07T19:58:50.719Z,7.78
2022-09-07T20:01:55.530Z,9.30
2022-09-07T20:04:59.906Z,10.25
2022-09-07T20:08:04.181Z,8.43
2022-09-07T20:11:12.136Z,7.43
2022-09-07T20:14:19.072Z,8.02
2022-09-07T20:17:23.804Z,10.77
2022-09-07T20:20:28.160Z,11.85
2022-09-07T20:23:34.474Z,7.85
2022-09-07T20:26:39.255Z,9.50
2022-09-07T20:29:43.426Z,15.20
2022-09-07T20:32:48.109Z,10.63
2022-09-07T20:35:52.942Z,9.43
2022-09-07T20:38:57.313Z,7.55
2022-09-07T20:42:02.209Z,11.55
2022-09-07T20:45:08.021Z,8.52
2022-09-07T20:48:12.878Z,10.90
2022-09-07T20:51:21.066Z,12.35
2022-09-07T20:54:26.037Z,8.65
2022-09-07T20:57:30.987Z,8.23
2022-09-07T21:00:38.680Z,7.65
2022-09-07T21:03:51.270Z,8.75
2022-09-07T21:06:55.746Z,8.38
2022-09-07T21:10:03.477Z,11.07
2022-09-07T21:13:11.581Z,8.70
2022-09-07T21:16:16.698Z,8.63
2022-09-07T21:19:21.359Z,12.15
2022-09-07T21:22:25.657Z,13.30
2022-09-07T21:25:30.427Z,11.65
2022-09-07T21:28:34.557Z,13.23
2022-09-07T21:31:38.741Z,14.32
2022-09-07T21:34:43.412Z,9.73
2022-09-07T21:37:47.907Z,10.82
2022-09-07T21:40:52.105Z,11.27
2022-09-07T21:44:02.627Z,13.23
2022-09-07T21:47:08.230Z,9.23
2022-09-07T21:50:12.688Z,9.65
2022-09-07T21:53:17.288Z,11.65
2022-09-07T21:56:22.283Z,10.60
2022-09-07T21:59:26.641Z,10.13
2022-09-07T22:02:31.177Z,11.35
2022-09-07T22:05:37.572Z,11.32
2022-09-07T22:08:42.901Z,10.95
2022-09-07T22:11:47.406Z,11.05
2022-09-07T22:14:52.040Z,14.32
2022-09-07T22:17:56.299Z,12.43
2022-09-07T22:21:14.598Z,12.02
2022-09-07T22:24:18.853Z,11.25
2022-09-07T22:27:23.415Z,11.93
2022-09-07T22:30:28.142Z,12.68
2022-09-07T22:33:32.497Z,11.60
2022-09-07T22:36:44.985Z,13.75
2022-09-07T22:39:49.811Z,15.00
2022-09-07T22:42:54.207Z,14.13
2022-09-07T22:46:00.199Z,13.85
2022-09-07T22:49:06.377Z,17.77
2022-09-07T22:52:10.370Z,15.10
2022-09-07T22:55:15.031Z,16.08
2022-09-07T22:58:19.434Z,14.40
2022-09-07T23:01:24.905Z,16.00
2022-09-07T23:04:31.830Z,14.38
2022-09-07T23:07:36.529Z,14.55
2022-09-07T23:10:40.994Z,16.67
2022-09-07T23:13:45.677Z,16.90
2022-09-07T23:16:50.732Z,15.75
2022-09-07T23:19:54.959Z,16.13
2022-09-07T23:22:59.704Z,19.02
2022-09-07T23:26:05.221Z,17.70
2022-09-07T23:29:12.693Z,18.95
2022-09-07T23:32:16.848Z,17.42
2022-09-07T23:35:21.135Z,17.20
2022-09-07T23:38:26.918Z,17.83
2022-09-07T23:41:31.575Z,19.08
2022-09-07T23:44:35.795Z,20.27
2022-09-07T23:47:40.394Z,15.82
2022-09-07T23:50:46.077Z,16.73
2022-09-07T23:53:50.233Z,17.88
2022-09-07T23:56:54.637Z,17.45
2022-09-07T23:59:59.029Z,16.83
